Nevada, Indiana
Current Conditions -  °F | °C
As of 9:15 AM on Saturday 25 Oct 2014 (Local Time) from KOKK Reporting Station
Clear Clear  
Wind Chill: 55°   Ceiling: Unl
Heat Index: 55°   Visibility: 9mi
Dew Point: 50°   Wind: 9mph
Humidity: 82%   Direction: 250°WSW
Pressure: 29.96"   Gusts: NA
Location:  40.3618°N, 86.1268°W
Report Text: KOKK 251315Z AUTO 25008KT 9SM CLR 13/10 A2996 RMK AO1
Loading
Personal Weather Stations






























Interactive Weather Map
Tropical Storm Tracking
New forecast layout! Learn more

10-Day Weather Forecast

Advertisements
Track Severe Weather on mobile